Time;durP1;ratioP1;P1;durP2;ratioP2;P2;SDS_P1;SDS_P2;PMS_P1;PMS_P2;Temp;Humidity;BMP_temperature;BMP_pressure;BME280_temperature;BME280_humidity;BME280_pressure;Samples;Min_cycle;Max_cycle;Signal;HPM_P1;HPM_P2
2022/05/02 00:02:10;;;;;;;8.55;6.80;;;;;;;;;;5001429;28;20062;-70
2022/05/02 00:04:38;;;;;;;7.68;6.53;;;;;;;;;;4999520;28;20096;-70
2022/05/02 00:07:05;;;;;;;7.82;7.10;;;;;;;;;;5005921;28;20077;-70
2022/05/02 00:09:34;;;;;;;8.57;7.10;;;;;;;;;;5003324;28;20667;-70
2022/05/02 00:12:01;;;;;;;8.95;7.70;;;;;;;;;;5002000;28;20057;-70
2022/05/02 00:14:28;;;;;;;8.82;7.53;;;;;;;;;;5004735;28;20066;-70
2022/05/02 00:16:55;;;;;;;8.13;6.90;;;;;;;;;;4995928;28;20054;-70
2022/05/02 00:19:23;;;;;;;10.30;7.72;;;;;;;;;;4996691;28;20050;-70
2022/05/02 00:21:50;;;;;;;9.50;7.45;;;;;;;;;;5002934;28;20120;-70
2022/05/02 00:24:17;;;;;;;8.32;6.78;;;;;;;;;;4995836;28;20053;-71
2022/05/02 00:26:46;;;;;;;8.60;7.70;;;;;;;;;;5003585;28;20104;-70
2022/05/02 00:29:13;;;;;;;10.10;7.20;;;;;;;;;;5000058;28;20107;-71
2022/05/02 00:31:40;;;;;;;10.27;6.53;;;;;;;;;;4996340;28;20386;-70
2022/05/02 00:34:08;;;;;;;10.10;7.30;;;;;;;;;;5000863;28;20057;-71
2022/05/02 00:36:35;;;;;;;8.90;6.97;;;;;;;;;;5001607;28;20054;-70
2022/05/02 00:39:02;;;;;;;9.27;7.03;;;;;;;;;;5004305;28;20053;-70
2022/05/02 00:41:29;;;;;;;7.38;6.22;;;;;;;;;;5005114;28;20473;-70
2022/05/02 00:43:58;;;;;;;8.15;6.80;;;;;;;;;;5002765;28;20056;-70
2022/05/02 00:46:26;;;;;;;8.13;6.93;;;;;;;;;;5006262;28;20108;-70
2022/05/02 00:48:53;;;;;;;9.25;6.53;;;;;;;;;;5003835;28;20117;-70
2022/05/02 00:51:21;;;;;;;7.40;6.57;;;;;;;;;;5001789;28;20049;-70
2022/05/02 00:53:49;;;;;;;7.93;5.30;;;;;;;;;;4996174;28;20128;-70
2022/05/02 00:56:17;;;;;;;7.28;5.90;;;;;;;;;;4992406;28;20801;-70
2022/05/02 00:58:45;;;;;;;6.28;5.63;;;;;;;;;;4995055;28;20101;-70
2022/05/02 01:01:13;;;;;;;6.72;5.88;;;;;;;;;;4997066;28;20054;-71
2022/05/02 01:03:40;;;;;;;8.30;7.05;;;;;;;;;;5001911;28;20058;-70
2022/05/02 01:08:54;;;;;;;7.40;5.45;;;;;;;;;;5005821;28;20127;-70
2022/05/02 01:11:21;;;;;;;6.78;6.07;;;;;;;;;;5006621;28;20050;-70
2022/05/02 01:13:49;;;;;;;8.05;6.28;;;;;;;;;;5006945;28;20517;-70
2022/05/02 01:16:19;;;;;;;9.13;6.93;;;;;;;;;;5007031;28;20070;-70
2022/05/02 01:18:46;;;;;;;7.05;5.63;;;;;;;;;;5005565;28;20059;-70
2022/05/02 01:21:16;;;;;;;7.32;6.63;;;;;;;;;;5002516;28;20065;-70
2022/05/02 01:23:43;;;;;;;10.25;7.20;;;;;;;;;;5005661;28;20061;-71
2022/05/02 01:26:11;;;;;;;8.13;6.35;;;;;;;;;;5003351;28;20056;-70
2022/05/02 01:28:42;;;;;;;9.18;6.95;;;;;;;;;;5007131;28;20061;-70
2022/05/02 01:31:09;;;;;;;7.40;5.95;;;;;;;;;;5004074;28;20128;-70
2022/05/02 01:33:36;;;;;;;7.47;5.90;;;;;;;;;;5003786;28;20054;-70
2022/05/02 01:36:04;;;;;;;6.95;6.25;;;;;;;;;;5005509;28;20073;-70
2022/05/02 01:38:33;;;;;;;11.10;6.18;;;;;;;;;;5002660;28;20120;-70
2022/05/02 01:41:00;;;;;;;9.57;6.30;;;;;;;;;;5006468;28;20116;-70
2022/05/02 01:43:28;;;;;;;10.05;6.88;;;;;;;;;;5004248;28;20053;-70
2022/05/02 01:45:55;;;;;;;8.35;6.55;;;;;;;;;;5003186;28;20139;-70
2022/05/02 01:48:22;;;;;;;9.38;6.13;;;;;;;;;;5004014;28;20062;-70
2022/05/02 01:50:49;;;;;;;8.25;6.18;;;;;;;;;;5004962;28;20065;-70
2022/05/02 01:53:17;;;;;;;8.48;5.88;;;;;;;;;;5005243;28;20092;-70
2022/05/02 01:55:45;;;;;;;8.55;6.03;;;;;;;;;;4998169;28;20101;-70
2022/05/02 01:58:13;;;;;;;8.60;5.70;;;;;;;;;;5001564;28;20115;-71
2022/05/02 02:00:40;;;;;;;7.80;5.68;;;;;;;;;;5005883;28;20054;-70
2022/05/02 02:03:07;;;;;;;6.85;5.32;;;;;;;;;;5007980;28;20111;-70
2022/05/02 02:05:50;;;;;;;7.30;6.38;;;;;;;;;;5005054;28;20069;-69
2022/05/02 02:08:18;;;;;;;5.97;4.67;;;;;;;;;;5005870;28;20081;-70
2022/05/02 02:10:47;;;;;;;6.93;4.68;;;;;;;;;;5006070;28;20054;-70
2022/05/02 02:13:15;;;;;;;7.85;5.45;;;;;;;;;;5005002;28;20111;-70
2022/05/02 02:15:42;;;;;;;5.60;4.80;;;;;;;;;;5004164;28;20087;-70
2022/05/02 02:18:09;;;;;;;5.18;4.20;;;;;;;;;;5005180;28;20114;-70
2022/05/02 02:20:37;;;;;;;6.20;4.88;;;;;;;;;;5005900;28;20389;-69
2022/05/02 02:23:04;;;;;;;5.43;4.20;;;;;;;;;;5001311;28;20075;-69
2022/05/02 02:25:32;;;;;;;6.03;4.25;;;;;;;;;;5002408;28;20050;-70
2022/05/02 02:28:01;;;;;;;5.07;4.57;;;;;;;;;;5004353;28;20591;-70
2022/05/02 02:30:29;;;;;;;4.43;3.90;;;;;;;;;;5005386;28;20467;-70
2022/05/02 02:32:57;;;;;;;4.10;3.67;;;;;;;;;;5005206;28;20054;-70
2022/05/02 02:35:24;;;;;;;8.60;5.03;;;;;;;;;;5000557;28;20104;-70
2022/05/02 02:37:52;;;;;;;9.13;5.03;;;;;;;;;;5003528;28;20457;-70
2022/05/02 02:40:19;;;;;;;5.05;4.45;;;;;;;;;;5001817;28;20065;-69
2022/05/02 02:42:46;;;;;;;5.95;5.07;;;;;;;;;;5005330;28;20057;-69
2022/05/02 02:45:15;;;;;;;6.75;4.60;;;;;;;;;;5000083;28;20061;-70
2022/05/02 02:47:42;;;;;;;7.03;4.90;;;;;;;;;;5004196;28;20046;-70
2022/05/02 02:50:10;;;;;;;6.53;4.80;;;;;;;;;;5000530;28;20465;-70
2022/05/02 02:52:37;;;;;;;8.57;5.38;;;;;;;;;;5002596;28;20054;-70
2022/05/02 02:55:04;;;;;;;6.40;5.05;;;;;;;;;;5002850;28;20054;-70
2022/05/02 02:57:32;;;;;;;6.35;4.70;;;;;;;;;;5004853;28;20049;-70
2022/05/02 02:59:59;;;;;;;5.45;3.90;;;;;;;;;;5005405;28;20042;-70
2022/05/02 03:02:27;;;;;;;6.55;4.45;;;;;;;;;;5007985;28;20046;-70
2022/05/02 03:07:45;;;;;;;5.07;3.60;;;;;;;;;;4966059;28;20043;-70
2022/05/02 03:10:12;;;;;;;4.43;3.30;;;;;;;;;;5008546;28;20610;-70
2022/05/02 03:12:40;;;;;;;3.83;3.28;;;;;;;;;;5007015;28;20057;-70
2022/05/02 03:15:08;;;;;;;3.60;3.17;;;;;;;;;;5008021;28;20116;-71
2022/05/02 03:17:36;;;;;;;4.38;3.70;;;;;;;;;;5011250;28;20054;-70
2022/05/02 03:20:04;;;;;;;3.78;3.22;;;;;;;;;;5007572;28;20104;-70
2022/05/02 03:22:31;;;;;;;5.13;2.72;;;;;;;;;;5007251;28;20173;-70
2022/05/02 03:24:59;;;;;;;4.00;3.08;;;;;;;;;;5009510;28;20403;-70
2022/05/02 03:27:26;;;;;;;7.30;3.47;;;;;;;;;;5007555;28;20136;-70
2022/05/02 03:29:53;;;;;;;2.95;2.40;;;;;;;;;;5007761;28;20057;-70
2022/05/02 03:32:20;;;;;;;5.25;2.50;;;;;;;;;;5006609;28;20120;-70
2022/05/02 03:34:49;;;;;;;2.53;2.13;;;;;;;;;;5008175;28;20058;-70
2022/05/02 03:37:16;;;;;;;2.50;2.20;;;;;;;;;;5008438;28;20069;-70
2022/05/02 03:39:43;;;;;;;3.63;2.50;;;;;;;;;;5009407;28;20420;-70
2022/05/02 03:42:10;;;;;;;3.80;2.92;;;;;;;;;;5009309;28;20147;-70
2022/05/02 03:44:37;;;;;;;3.90;3.00;;;;;;;;;;5005750;28;20055;-70
2022/05/02 03:47:05;;;;;;;4.07;2.92;;;;;;;;;;5005387;28;20128;-70
2022/05/02 03:49:32;;;;;;;3.33;2.88;;;;;;;;;;5006303;28;20116;-69
2022/05/02 03:52:01;;;;;;;4.05;3.00;;;;;;;;;;5006530;28;20065;-70
2022/05/02 03:54:28;;;;;;;3.42;2.83;;;;;;;;;;5007783;28;20480;-70
2022/05/02 03:56:55;;;;;;;3.65;3.00;;;;;;;;;;5012904;28;20049;-70
2022/05/02 03:59:23;;;;;;;4.60;3.30;;;;;;;;;;5007835;28;20068;-70
2022/05/02 04:01:50;;;;;;;5.13;3.53;;;;;;;;;;5005863;28;20061;-70
2022/05/02 04:04:17;;;;;;;4.88;3.95;;;;;;;;;;5006214;28;20077;-70
2022/05/02 04:06:44;;;;;;;6.35;3.47;;;;;;;;;;5004653;28;20057;-70
2022/05/02 04:09:13;;;;;;;7.22;4.43;;;;;;;;;;5010029;28;20507;-70
2022/05/02 04:11:41;;;;;;;5.22;3.58;;;;;;;;;;5004428;28;20054;-70
2022/05/02 04:14:08;;;;;;;5.38;3.88;;;;;;;;;;5009006;28;20515;-70
2022/05/02 04:16:35;;;;;;;4.28;3.58;;;;;;;;;;5006763;28;20713;-70
2022/05/02 04:19:03;;;;;;;9.73;4.50;;;;;;;;;;5004719;28;20137;-70
2022/05/02 04:21:30;;;;;;;6.25;4.38;;;;;;;;;;4997751;28;20108;-69
2022/05/02 04:23:57;;;;;;;5.55;4.30;;;;;;;;;;5004333;28;20054;-71
2022/05/02 04:26:26;;;;;;;5.10;4.60;;;;;;;;;;5004688;28;20049;-70
2022/05/02 04:28:53;;;;;;;8.68;4.82;;;;;;;;;;5005360;28;20061;-70
2022/05/02 04:31:20;;;;;;;5.97;4.35;;;;;;;;;;5007077;28;20089;-70
2022/05/02 04:33:47;;;;;;;6.97;5.10;;;;;;;;;;4999972;28;20054;-70
2022/05/02 04:36:15;;;;;;;7.55;5.53;;;;;;;;;;5004775;28;20392;-70
2022/05/02 04:38:42;;;;;;;8.48;6.43;;;;;;;;;;4999017;28;20057;-70
2022/05/02 04:41:13;;;;;;;7.22;5.82;;;;;;;;;;4999893;28;20053;-70
2022/05/02 04:43:42;;;;;;;6.20;5.30;;;;;;;;;;4998701;28;20078;-69
2022/05/02 04:46:09;;;;;;;7.10;5.00;;;;;;;;;;4999920;28;20042;-69
2022/05/02 04:48:36;;;;;;;7.03;4.80;;;;;;;;;;5002423;28;21290;-70
2022/05/02 04:51:04;;;;;;;6.35;4.38;;;;;;;;;;5002197;28;20053;-69
2022/05/02 04:53:31;;;;;;;7.95;5.80;;;;;;;;;;5001018;28;20108;-70
2022/05/02 04:55:58;;;;;;;7.10;5.15;;;;;;;;;;5005114;28;20061;-70
2022/05/02 04:58:25;;;;;;;5.22;4.35;;;;;;;;;;5003670;28;20096;-70
2022/05/02 05:00:54;;;;;;;6.03;4.20;;;;;;;;;;5004725;28;20054;-70
2022/05/02 05:03:22;;;;;;;5.60;4.28;;;;;;;;;;5004293;28;20131;-70
2022/05/02 05:05:49;;;;;;;5.38;4.25;;;;;;;;;;5003883;28;20054;-70
2022/05/02 05:08:17;;;;;;;6.05;3.97;;;;;;;;;;5003699;28;20049;-70
2022/05/02 05:10:49;;;;;;;8.65;4.57;;;;;;;;;;5002510;28;20054;-70
2022/05/02 05:13:19;;;;;;;7.03;4.18;;;;;;;;;;5003759;28;20108;-70
2022/05/02 05:18:40;;;;;;;;;;;;;;;;;;5003504;28;20129;-70
2022/05/02 05:21:10;;;;;;;5.38;3.90;;;;;;;;;;5004628;28;19921;-69
2022/05/02 05:23:46;;;;;;;6.38;5.20;;;;;;;;;;5003208;28;20053;-70
2022/05/02 05:26:15;;;;;;;5.90;5.18;;;;;;;;;;5003960;28;20042;-70
2022/05/02 05:28:50;;;;;;;7.22;5.93;;;;;;;;;;5003196;28;20076;-70
2022/05/02 05:31:25;;;;;;;9.20;6.70;;;;;;;;;;5003168;28;20093;-70
2022/05/02 05:33:55;;;;;;;7.93;6.40;;;;;;;;;;5002830;28;20053;-70
2022/05/02 05:36:32;;;;;;;8.18;6.55;;;;;;;;;;5002926;28;20048;-69
2022/05/02 05:39:04;;;;;;;7.30;6.00;;;;;;;;;;5004104;28;20460;-70
2022/05/02 05:41:43;;;;;;;7.68;6.88;;;;;;;;;;5002885;28;20054;-70
2022/05/02 05:44:16;;;;;;;9.45;7.72;;;;;;;;;;5004047;28;20493;-70
2022/05/02 05:47:02;;;;;;;11.48;7.63;;;;;;;;;;5003201;28;20542;-69
2022/05/02 05:49:36;;;;;;;11.60;8.68;;;;;;;;;;5003910;28;20045;-70
2022/05/02 05:52:13;;;;;;;12.25;9.40;;;;;;;;;;5002975;28;20068;-70
2022/05/02 05:54:46;;;;;;;9.80;8.65;;;;;;;;;;5003375;28;20046;-70
2022/05/02 05:57:13;;;;;;;;;;;;;;;;;;5002079;28;20050;-70
2022/05/02 05:59:48;;;;;;;9.93;7.97;;;;;;;;;;5003902;28;19925;-70
2022/05/02 06:02:19;;;;;;;10.65;8.35;;;;;;;;;;5005045;28;20139;-71
2022/05/02 06:04:48;;;;;;;11.80;9.90;;;;;;;;;;5006600;28;20492;-70
2022/05/02 06:07:18;;;;;;;13.73;10.38;;;;;;;;;;5003792;28;20829;-70
2022/05/02 06:09:46;;;;;;;17.15;10.60;;;;;;;;;;5000801;28;20061;-70
2022/05/02 06:12:14;;;;;;;11.38;9.60;;;;;;;;;;5002568;28;20067;-70
2022/05/02 06:20:13;;;;;;;14.40;10.95;;;;;;;;;;4992984;28;20750;-70
2022/05/02 06:22:42;;;;;;;14.65;10.57;;;;;;;;;;4995485;28;20042;-70
2022/05/02 06:25:09;;;;;;;16.48;10.43;;;;;;;;;;4994959;28;20054;-70
2022/05/02 06:27:37;;;;;;;13.50;11.27;;;;;;;;;;4997486;28;20533;-69
2022/05/02 06:30:05;;;;;;;14.63;11.23;;;;;;;;;;4992248;28;20068;-69
2022/05/02 06:32:32;;;;;;;15.77;10.55;;;;;;;;;;4999111;28;20050;-70
2022/05/02 06:34:59;;;;;;;13.88;10.05;;;;;;;;;;4996879;28;20111;-71
2022/05/02 06:37:32;;;;;;;14.52;10.10;;;;;;;;;;4990701;28;20053;-70
2022/05/02 06:40:05;;;;;;;12.30;10.13;;;;;;;;;;4998072;28;20147;-70
2022/05/02 06:42:37;;;;;;;13.98;9.85;;;;;;;;;;4993686;28;20057;-70
2022/05/02 06:45:08;;;;;;;12.05;9.55;;;;;;;;;;5000016;28;20424;-70
2022/05/02 06:47:50;;;;;;;11.20;9.27;;;;;;;;;;5001689;28;20050;-70
2022/05/02 06:50:18;;;;;;;13.77;9.70;;;;;;;;;;5005430;28;20503;-70
2022/05/02 06:52:50;;;;;;;12.85;9.38;;;;;;;;;;4997394;28;20054;-70
2022/05/02 06:55:24;;;;;;;12.20;9.23;;;;;;;;;;4998977;28;20513;-70
2022/05/02 06:57:58;;;;;;;11.80;8.82;;;;;;;;;;4994605;28;20046;-70
2022/05/02 07:00:25;;;;;;;13.00;8.63;;;;;;;;;;4997551;28;20100;-70
2022/05/02 07:03:08;;;;;;;16.35;8.60;;;;;;;;;;4997919;28;20820;-70
2022/05/02 07:05:39;;;;;;;12.07;8.75;;;;;;;;;;4995816;28;20381;-70
2022/05/02 07:08:07;;;;;;;22.75;8.80;;;;;;;;;;4997857;28;20058;-70
2022/05/02 07:10:36;;;;;;;16.63;9.45;;;;;;;;;;4995041;28;20477;-70
2022/05/02 07:13:18;;;;;;;13.18;8.85;;;;;;;;;;4999949;28;20051;-71
2022/05/02 07:15:46;;;;;;;12.52;8.77;;;;;;;;;;5000679;28;20477;-70
2022/05/02 07:18:25;;;;;;;12.90;8.38;;;;;;;;;;4996148;28;20957;-69
2022/05/02 07:21:00;;;;;;;12.38;8.82;;;;;;;;;;4998091;28;20062;-70
2022/05/02 07:23:38;;;;;;;11.25;8.27;;;;;;;;;;4998381;28;20060;-70
2022/05/02 07:26:08;;;;;;;12.00;7.22;;;;;;;;;;5000972;28;20054;-71
2022/05/02 07:28:37;;;;;;;9.35;7.28;;;;;;;;;;4998397;28;20398;-70
2022/05/02 07:31:06;;;;;;;14.13;7.15;;;;;;;;;;5000206;28;20058;-70
2022/05/02 07:33:36;;;;;;;11.00;7.35;;;;;;;;;;4998514;28;20151;-71
2022/05/02 07:36:04;;;;;;;9.23;6.07;;;;;;;;;;5001064;28;20070;-70
2022/05/02 07:38:33;;;;;;;6.90;5.63;;;;;;;;;;4998643;28;20069;-70
2022/05/02 07:43:54;;;;;;;8.05;4.22;;;;;;;;;;4990909;28;20744;-70
2022/05/02 07:46:22;;;;;;;6.97;3.85;;;;;;;;;;5001071;28;20061;-70
2022/05/02 07:48:51;;;;;;;8.02;4.82;;;;;;;;;;4998674;28;20061;-71
2022/05/02 07:51:20;;;;;;;7.63;4.60;;;;;;;;;;5002824;28;20093;-70
2022/05/02 07:53:47;;;;;;;6.47;4.20;;;;;;;;;;5000137;28;20057;-70
2022/05/02 07:56:15;;;;;;;11.25;4.00;;;;;;;;;;4999912;28;20050;-71
2022/05/02 07:58:42;;;;;;;7.68;3.65;;;;;;;;;;5003445;28;20049;-71
2022/05/02 08:01:13;;;;;;;6.05;3.90;;;;;;;;;;5001338;28;20053;-70
2022/05/02 08:03:40;;;;;;;6.68;4.13;;;;;;;;;;5002320;28;20057;-70
2022/05/02 08:06:15;;;;;;;8.77;4.30;;;;;;;;;;5005110;28;20053;-71
2022/05/02 08:08:49;;;;;;;8.18;4.10;;;;;;;;;;5002907;28;20065;-71
2022/05/02 08:11:20;;;;;;;8.30;4.47;;;;;;;;;;5006705;28;20060;-71
2022/05/02 08:13:55;;;;;;;6.05;4.10;;;;;;;;;;5009843;28;20062;-71
2022/05/02 08:16:26;;;;;;;7.30;3.90;;;;;;;;;;5004598;28;20049;-71
2022/05/02 08:19:03;;;;;;;5.85;3.95;;;;;;;;;;4998314;28;20144;-70
2022/05/02 08:21:34;;;;;;;8.93;3.78;;;;;;;;;;5001110;28;20046;-70
2022/05/02 08:29:47;;;;;;;8.32;4.50;;;;;;;;;;5003438;28;20120;-70
2022/05/02 08:32:23;;;;;;;8.45;4.55;;;;;;;;;;5004724;28;20420;-71
2022/05/02 08:35:00;;;;;;;8.30;4.82;;;;;;;;;;5002117;28;20093;-70
2022/05/02 08:37:33;;;;;;;10.45;4.72;;;;;;;;;;5003704;28;20082;-71
2022/05/02 08:40:00;;;;;;;;;;;;;;;;;;5001416;28;20055;-71
2022/05/02 08:42:44;;;;;;;6.13;3.85;;;;;;;;;;5003402;28;19932;-70
2022/05/02 08:45:26;;;;;;;10.50;4.50;;;;;;;;;;5007160;28;20058;-71
2022/05/02 08:48:21;;;;;;;6.67;4.27;;;;;;;;;;5003247;28;20485;-70
2022/05/02 08:51:01;;;;;;;10.05;4.68;;;;;;;;;;5001810;28;20073;-70
2022/05/02 08:53:46;;;;;;;9.63;4.15;;;;;;;;;;5006546;28;20056;-70
2022/05/02 08:56:21;;;;;;;6.82;4.25;;;;;;;;;;4997944;28;20730;-70
2022/05/02 08:59:09;;;;;;;8.52;4.40;;;;;;;;;;5001639;28;20046;-71
2022/05/02 09:02:00;;;;;;;8.82;4.65;;;;;;;;;;4969233;28;20053;-71
2022/05/02 09:04:48;;;;;;;8.07;4.07;;;;;;;;;;4982505;28;20139;-70
2022/05/02 09:07:32;;;;;;;8.20;4.68;;;;;;;;;;5004114;28;20054;-71
2022/05/02 09:10:06;;;;;;;9.25;4.47;;;;;;;;;;5006048;28;20064;-71
2022/05/02 09:13:00;;;;;;;9.95;5.00;;;;;;;;;;5006835;28;20057;-70
2022/05/02 09:15:46;;;;;;;6.72;4.60;;;;;;;;;;5010010;28;20049;-70
2022/05/02 09:18:22;;;;;;;7.00;4.45;;;;;;;;;;5005865;28;20060;-71
2022/05/02 09:20:51;;;;;;;7.32;4.50;;;;;;;;;;5005641;28;20693;-71
2022/05/02 09:23:37;;;;;;;8.70;4.50;;;;;;;;;;5004624;28;20081;-71
2022/05/02 09:26:23;;;;;;;7.82;4.40;;;;;;;;;;5004980;28;20045;-71
2022/05/02 09:28:59;;;;;;;6.53;3.97;;;;;;;;;;5003208;28;20050;-71
2022/05/02 09:31:32;;;;;;;7.68;3.97;;;;;;;;;;5002976;28;20515;-71
2022/05/02 09:34:10;;;;;;;8.52;4.60;;;;;;;;;;5002884;28;20489;-71
2022/05/02 09:36:43;;;;;;;7.10;4.30;;;;;;;;;;5001513;28;20042;-70
2022/05/02 09:39:14;;;;;;;8.65;3.95;;;;;;;;;;4996700;28;20115;-70
2022/05/02 09:42:02;;;;;;;7.15;3.85;;;;;;;;;;5005241;28;20058;-70
2022/05/02 09:50:22;;;;;;;5.93;3.70;;;;;;;;;;5003643;28;20111;-71
2022/05/02 09:52:54;;;;;;;7.45;3.95;;;;;;;;;;5000863;28;20137;-70
2022/05/02 09:58:29;;;;;;;4.10;3.15;;;;;;;;;;5003235;28;20065;-71
2022/05/02 10:01:11;;;;;;;5.78;3.58;;;;;;;;;;5003419;28;20077;-71
2022/05/02 10:03:40;;;;;;;5.35;3.33;;;;;;;;;;5001536;28;20050;-71
2022/05/02 10:06:09;;;;;;;6.88;3.40;;;;;;;;;;4999258;28;20132;-70
2022/05/02 10:08:46;;;;;;;5.00;3.40;;;;;;;;;;5000587;28;20128;-70
2022/05/02 10:11:17;;;;;;;7.47;3.33;;;;;;;;;;4997924;28;20060;-71
2022/05/02 10:13:51;;;;;;;5.93;2.92;;;;;;;;;;4994629;28;20053;-70
2022/05/02 10:16:30;;;;;;;4.07;2.63;;;;;;;;;;4997778;28;20049;-70
2022/05/02 10:19:08;;;;;;;5.30;2.70;;;;;;;;;;5000927;28;20108;-71
2022/05/02 10:21:43;;;;;;;4.32;2.58;;;;;;;;;;5002536;28;20057;-71
2022/05/02 10:24:23;;;;;;;5.72;2.95;;;;;;;;;;5001003;28;20571;-71
2022/05/02 10:26:53;;;;;;;4.03;2.78;;;;;;;;;;5000071;28;20064;-71
2022/05/02 10:29:34;;;;;;;6.30;2.85;;;;;;;;;;5000771;28;20123;-70
2022/05/02 10:32:05;;;;;;;5.28;2.50;;;;;;;;;;5002890;28;20058;-71
2022/05/02 10:34:33;;;;;;;4.80;2.20;;;;;;;;;;5009404;28;20054;-70
2022/05/02 10:37:03;;;;;;;3.53;2.50;;;;;;;;;;5007359;28;20089;-70
2022/05/02 10:39:40;;;;;;;3.85;2.55;;;;;;;;;;5008369;28;20129;-71
2022/05/02 10:42:08;;;;;;;5.30;2.60;;;;;;;;;;5009536;28;20171;-70
2022/05/02 10:44:42;;;;;;;5.95;2.92;;;;;;;;;;5005962;28;20068;-70
2022/05/02 10:47:12;;;;;;;6.40;3.47;;;;;;;;;;4999524;28;20049;-71
2022/05/02 10:49:47;;;;;;;7.63;2.90;;;;;;;;;;5004309;28;20058;-71
2022/05/02 10:52:17;;;;;;;7.60;4.20;;;;;;;;;;5003392;28;20046;-71
2022/05/02 10:54:46;;;;;;;7.63;4.10;;;;;;;;;;5006974;28;20058;-71
2022/05/02 10:57:19;;;;;;;7.05;4.30;;;;;;;;;;5009650;28;20061;-71
2022/05/02 10:59:48;;;;;;;7.95;4.75;;;;;;;;;;5008045;28;20089;-71
2022/05/02 11:02:39;;;;;;;7.57;3.42;;;;;;;;;;5009195;28;20135;-71
2022/05/02 11:05:10;;;;;;;9.18;3.92;;;;;;;;;;5005036;28;20057;-71
2022/05/02 11:07:41;;;;;;;7.18;3.58;;;;;;;;;;5005921;28;20050;-70
2022/05/02 11:10:10;;;;;;;9.23;4.10;;;;;;;;;;4999978;28;20046;-71
2022/05/02 11:12:39;;;;;;;7.30;4.10;;;;;;;;;;5008572;28;20085;-71
2022/05/02 11:15:07;;;;;;;7.25;4.40;;;;;;;;;;5008390;28;20049;-71
2022/05/02 11:17:39;;;;;;;5.35;3.20;;;;;;;;;;5005106;28;20050;-71
2022/05/02 11:23:01;;;;;;;9.13;3.30;;;;;;;;;;5002305;28;20060;-71
2022/05/02 11:25:35;;;;;;;9.40;4.07;;;;;;;;;;5002200;28;20059;-71
2022/05/02 11:28:08;;;;;;;8.05;3.70;;;;;;;;;;5007881;28;20060;-71
2022/05/02 11:30:38;;;;;;;9.00;3.80;;;;;;;;;;5005724;28;20046;-71
2022/05/02 11:33:18;;;;;;;12.65;4.05;;;;;;;;;;5008447;28;20058;-71
2022/05/02 11:35:48;;;;;;;5.82;3.67;;;;;;;;;;5006413;28;20057;-71
2022/05/02 11:38:26;;;;;;;15.30;3.63;;;;;;;;;;5008066;28;20057;-71
2022/05/02 11:40:55;;;;;;;6.45;3.85;;;;;;;;;;5000050;28;20058;-72
2022/05/02 11:43:23;;;;;;;6.28;3.78;;;;;;;;;;5006537;28;20389;-71
2022/05/02 11:45:58;;;;;;;6.00;3.88;;;;;;;;;;5004403;28;20062;-72
2022/05/02 11:48:42;;;;;;;4.35;3.60;;;;;;;;;;5000615;28;20839;-71
2022/05/02 11:51:19;;;;;;;10.13;3.70;;;;;;;;;;5008298;28;20100;-69
2022/05/02 11:53:49;;;;;;;8.85;3.28;;;;;;;;;;5007497;28;20428;-69
2022/05/02 11:56:18;;;;;;;9.80;3.80;;;;;;;;;;5006953;28;20165;-70
2022/05/02 11:58:46;;;;;;;10.75;3.80;;;;;;;;;;5003490;28;20058;-69
2022/05/02 12:01:13;;;;;;;5.72;3.92;;;;;;;;;;5005511;28;20049;-72
2022/05/02 12:03:53;;;;;;;6.63;3.53;;;;;;;;;;4999455;28;20057;-71
2022/05/02 12:06:27;;;;;;;5.25;3.38;;;;;;;;;;5006699;28;20808;-71
2022/05/02 12:08:57;;;;;;;5.38;3.10;;;;;;;;;;5006663;28;20064;-72
2022/05/02 12:11:24;;;;;;;6.35;3.60;;;;;;;;;;5007853;28;20456;-72
2022/05/02 12:13:52;;;;;;;6.82;3.50;;;;;;;;;;5009245;28;20069;-72
2022/05/02 12:16:20;;;;;;;7.00;3.50;;;;;;;;;;5003033;28;20436;-70
2022/05/02 12:18:48;;;;;;;5.80;3.05;;;;;;;;;;4999641;28;20042;-69
2022/05/02 12:21:17;;;;;;;6.97;3.38;;;;;;;;;;5005231;28;20057;-69
2022/05/02 12:23:45;;;;;;;6.13;3.30;;;;;;;;;;5001850;28;20053;-69
2022/05/02 12:26:18;;;;;;;4.35;2.92;;;;;;;;;;5007833;28;20064;-69
2022/05/02 12:28:45;;;;;;;;;;;;;;;;;;5005820;28;20130;-70
2022/05/02 12:31:15;;;;;;;6.47;3.55;;;;;;;;;;5009160;28;19926;-70
2022/05/02 12:33:44;;;;;;;5.13;2.80;;;;;;;;;;5006516;28;20099;-70
2022/05/02 12:36:15;;;;;;;4.63;3.08;;;;;;;;;;5007203;28;20136;-70
2022/05/02 12:38:45;;;;;;;5.32;3.00;;;;;;;;;;5007352;28;20049;-70
2022/05/02 12:41:16;;;;;;;5.22;2.92;;;;;;;;;;5004213;28;20535;-72
2022/05/02 12:43:45;;;;;;;3.88;2.65;;;;;;;;;;4999823;28;20051;-72
2022/05/02 12:46:16;;;;;;;4.85;2.75;;;;;;;;;;5007558;28;20116;-72
2022/05/02 12:48:50;;;;;;;7.43;2.78;;;;;;;;;;5006287;28;20116;-73
2022/05/02 12:51:18;;;;;;;3.60;2.35;;;;;;;;;;5007664;28;20086;-70
2022/05/02 12:56:31;;;;;;;2.97;2.45;;;;;;;;;;5005902;28;20104;-70
2022/05/02 13:01:54;;;;;;;4.97;2.85;;;;;;;;;;5122181;27;20499;-70
2022/05/02 13:04:22;;;;;;;6.05;2.17;;;;;;;;;;5108256;28;20047;-71
2022/05/02 13:06:50;;;;;;;4.75;2.17;;;;;;;;;;5101326;28;20984;-71
2022/05/02 13:09:19;;;;;;;4.10;2.15;;;;;;;;;;5102788;28;20047;-71
2022/05/02 13:11:46;;;;;;;3.08;2.00;;;;;;;;;;5104297;27;20048;-71
2022/05/02 13:14:25;;;;;;;4.07;2.47;;;;;;;;;;5103354;28;20106;-71
2022/05/02 13:16:54;;;;;;;4.07;2.00;;;;;;;;;;5101443;28;20159;-71
2022/05/02 13:19:33;;;;;;;3.22;2.20;;;;;;;;;;5100926;28;20730;-71
2022/05/02 13:22:01;;;;;;;4.40;2.42;;;;;;;;;;5101902;28;20056;-71
2022/05/02 13:24:28;;;;;;;6.78;2.10;;;;;;;;;;5101450;28;20053;-71
2022/05/02 13:27:02;;;;;;;3.67;1.98;;;;;;;;;;5101468;28;20108;-70
2022/05/02 13:29:48;;;;;;;2.97;1.90;;;;;;;;;;5103869;28;20063;-71
2022/05/02 13:32:18;;;;;;;3.45;1.92;;;;;;;;;;5101843;28;20064;-71
2022/05/02 13:34:52;;;;;;;5.20;1.90;;;;;;;;;;5101390;28;20051;-70
2022/05/02 13:37:26;;;;;;;3.33;1.73;;;;;;;;;;5102783;28;20046;-71
2022/05/02 13:39:57;;;;;;;5.07;2.00;;;;;;;;;;5099228;28;20132;-71
2022/05/02 13:42:36;;;;;;;2.00;1.52;;;;;;;;;;5102004;28;20056;-71
2022/05/02 13:45:05;;;;;;;3.78;1.85;;;;;;;;;;5098780;28;20048;-71
2022/05/02 13:47:43;;;;;;;3.78;1.70;;;;;;;;;;5102567;28;20044;-71
2022/05/02 13:50:12;;;;;;;2.53;1.95;;;;;;;;;;5102083;28;20048;-70
2022/05/02 13:52:47;;;;;;;5.22;1.90;;;;;;;;;;5099732;28;20046;-71
2022/05/02 13:55:21;;;;;;;4.13;1.88;;;;;;;;;;5099977;28;20051;-70
2022/05/02 13:57:53;;;;;;;2.72;2.00;;;;;;;;;;5099035;28;20134;-70
2022/05/02 14:03:16;;;;;;;2.75;1.80;;;;;;;;;;5101773;28;19974;-71
2022/05/02 14:05:58;;;;;;;3.08;1.80;;;;;;;;;;5098917;28;20559;-70
2022/05/02 14:08:42;;;;;;;2.63;1.50;;;;;;;;;;5095637;28;20059;-71
2022/05/02 14:11:13;;;;;;;3.33;2.10;;;;;;;;;;5099256;28;20055;-71
2022/05/02 14:13:41;;;;;;;9.20;2.40;;;;;;;;;;5086385;28;20056;-70
2022/05/02 14:16:09;;;;;;;4.22;1.77;;;;;;;;;;5088296;28;20205;-71
2022/05/02 14:18:50;;;;;;;3.88;1.73;;;;;;;;;;5088898;28;20052;-70
2022/05/02 14:21:18;;;;;;;2.22;1.70;;;;;;;;;;5086909;28;20040;-70
2022/05/02 14:23:46;;;;;;;2.03;1.40;;;;;;;;;;5087445;28;20091;-70
2022/05/02 14:26:13;;;;;;;3.75;1.58;;;;;;;;;;5087740;28;20447;-71
2022/05/02 14:28:45;;;;;;;2.67;1.63;;;;;;;;;;5086981;28;20060;-71
2022/05/02 14:31:13;;;;;;;2.78;1.55;;;;;;;;;;5087237;28;20052;-71
2022/05/02 14:33:40;;;;;;;5.60;1.63;;;;;;;;;;5085722;28;20087;-70
2022/05/02 14:36:09;;;;;;;22.30;1.77;;;;;;;;;;5088885;28;20335;-70
2022/05/02 14:38:37;;;;;;;3.20;1.67;;;;;;;;;;5080112;28;20052;-70
2022/05/02 14:41:05;;;;;;;5.28;1.40;;;;;;;;;;5088472;28;20557;-70
2022/05/02 14:43:32;;;;;;;1.90;1.20;;;;;;;;;;5085221;28;20062;-70
2022/05/02 14:46:00;;;;;;;2.03;1.00;;;;;;;;;;5087595;28;20043;-70
2022/05/02 14:48:28;;;;;;;1.50;1.20;;;;;;;;;;5089180;28;20044;-70
2022/05/02 14:51:01;;;;;;;3.33;1.30;;;;;;;;;;5085183;28;20070;-71
2022/05/02 14:53:36;;;;;;;1.48;1.10;;;;;;;;;;5089036;28;20063;-70
2022/05/02 14:56:03;;;;;;;1.73;1.10;;;;;;;;;;5087709;28;20048;-70
2022/05/02 14:58:31;;;;;;;3.47;1.38;;;;;;;;;;5086788;28;20789;-70
2022/05/02 15:01:01;;;;;;;2.33;1.30;;;;;;;;;;5084263;28;20675;-70
2022/05/02 15:03:31;;;;;;;1.88;1.30;;;;;;;;;;5085727;28;20059;-70
2022/05/02 15:06:01;;;;;;;5.38;1.20;;;;;;;;;;5085667;28;20043;-70
2022/05/02 15:08:43;;;;;;;1.98;1.20;;;;;;;;;;5083036;28;20129;-70
2022/05/02 15:11:28;;;;;;;2.65;1.10;;;;;;;;;;5081504;28;20480;-70
2022/05/02 15:14:14;;;;;;;1.40;0.95;;;;;;;;;;5087424;28;20821;-70
2022/05/02 15:16:49;;;;;;;1.77;1.23;;;;;;;;;;5083729;28;20060;-70
2022/05/02 15:19:42;;;;;;;2.45;1.20;;;;;;;;;;5079447;28;20079;-72
2022/05/02 15:22:09;;;;;;;;;;;;;;;;;;5080701;28;20131;-70
2022/05/02 15:25:07;;;;;;;1.85;1.10;;;;;;;;;;5078776;28;19950;-71
2022/05/02 15:36:42;;;;;;;1.75;1.20;;;;;;;;;;5082271;28;20502;-71
2022/05/02 15:39:14;;;;;;;1.42;1.30;;;;;;;;;;5079675;28;20156;-71
2022/05/02 15:41:59;;;;;;;1.52;1.25;;;;;;;;;;5083475;28;20076;-71
2022/05/02 15:44:37;;;;;;;3.22;1.30;;;;;;;;;;5081555;28;20131;-71
2022/05/02 15:47:06;;;;;;;1.85;1.25;;;;;;;;;;5081853;28;20113;-71
2022/05/02 15:49:34;;;;;;;1.70;1.20;;;;;;;;;;5083492;28;20683;-71
2022/05/02 15:52:06;;;;;;;1.25;1.15;;;;;;;;;;5081541;28;20083;-71
2022/05/02 15:54:37;;;;;;;2.70;1.38;;;;;;;;;;5096341;28;20138;-71
2022/05/02 15:57:35;;;;;;;1.75;1.30;;;;;;;;;;5082017;28;20056;-71
2022/05/02 16:00:29;;;;;;;4.20;1.35;;;;;;;;;;5003886;28;20727;-71